Saint-Antonin, Canada
Current Conditions -  °F | °C
As of 2:53 AM on Sunday 23 Nov 2014 (Local Time) from KFVE Reporting Station
Overcast Overcast  
Wind Chill: 20°   Ceiling: 1200
Heat Index: 30°   Visibility: 10mi
Dew Point: 26°   Wind: 13mph
Humidity: 85%   Direction: 240°WSW
Pressure: 29.76"   Gusts: NA
Location:  47.77°N, 69.48°W
Report Text: KFVE 230753Z AUTO 24011KT 10SM OVC012 M01/M03 A2976 RMK AO2 SLP088 T10111033
Loading
Personal Weather Stations






























Interactive Weather Map New forecast layout! Learn more

10-Day Weather Forecast

Advertisements
Track Severe Weather on mobile